createdAt,value
2023-01-17T00:24:31.552Z,83
2023-01-17T00:53:42.356Z,82
2023-01-17T01:22:51.060Z,83
2023-01-17T01:52:14.393Z,84
2023-01-17T02:21:34.274Z,84
2023-01-17T02:50:56.408Z,82
2023-01-17T03:20:16.356Z,81
2023-01-17T03:49:35.178Z,81
2023-01-17T04:18:55.270Z,82
2023-01-17T04:48:06.138Z,82
2023-01-17T05:17:26.225Z,80
2023-01-17T05:46:42.925Z,80
2023-01-17T06:16:05.068Z,78
2023-01-17T06:45:14.685Z,78
2023-01-17T07:14:30.386Z,78
2023-01-17T07:43:50.803Z,78
2023-01-17T08:13:10.316Z,79
2023-01-17T08:42:29.349Z,78
2023-01-17T09:11:49.719Z,78
2023-01-17T09:41:12.547Z,79
2023-01-17T10:10:31.570Z,78
2023-01-17T10:39:53.673Z,78
2023-01-17T11:09:08.034Z,78
2023-01-17T11:38:27.351Z,76
2023-01-17T12:07:49.467Z,76
2023-01-17T12:37:05.851Z,75
2023-01-17T13:06:31.572Z,74
2023-01-17T13:35:48.656Z,70
2023-01-17T14:04:58.345Z,73
2023-01-17T14:34:03.624Z,68
2023-01-17T15:03:05.888Z,69
2023-01-17T15:32:07.764Z,66
2023-01-17T16:00:30.025Z,70
2023-01-17T16:29:43.822Z,71
2023-01-17T16:58:52.621Z,72
2023-01-17T17:28:03.033Z,73
2023-01-17T17:57:09.040Z,74
2023-01-17T18:26:09.808Z,75
2023-01-17T18:55:16.620Z,76
2023-01-17T19:24:31.499Z,76
2023-01-17T19:53:50.477Z,76
2023-01-17T20:23:09.050Z,76
2023-01-17T20:52:15.914Z,76
2023-01-17T21:21:32.337Z,76
2023-01-17T21:50:34.395Z,77
2023-01-17T22:19:38.635Z,77
2023-01-17T22:48:42.037Z,77
2023-01-17T23:17:49.469Z,77
2023-01-17T23:46:54.385Z,78
